sensor_id;sensor_type;location;lat;lon;timestamp;P1;durP1;ratioP1;P2;durP2;ratioP2
71202;SDS011;58929;47.490;19.090;2023-02-28T00:01:29;18.30;;;10.32;;
71202;SDS011;58929;47.490;19.090;2023-02-28T00:03:58;17.48;;;10.65;;
71202;SDS011;58929;47.490;19.090;2023-02-28T00:06:27;19.33;;;10.65;;
71202;SDS011;58929;47.490;19.090;2023-02-28T00:08:55;18.00;;;10.73;;
71202;SDS011;58929;47.490;19.090;2023-02-28T00:11:23;18.40;;;10.07;;
71202;SDS011;58929;47.490;19.090;2023-02-28T00:13:51;17.55;;;10.73;;
71202;SDS011;58929;47.490;19.090;2023-02-28T00:16:20;17.70;;;10.73;;
71202;SDS011;58929;47.490;19.090;2023-02-28T00:18:49;20.63;;;11.52;;
71202;SDS011;58929;47.490;19.090;2023-02-28T00:21:18;22.75;;;11.45;;
71202;SDS011;58929;47.490;19.090;2023-02-28T00:23:47;22.80;;;12.00;;
71202;SDS011;58929;47.490;19.090;2023-02-28T00:26:15;20.95;;;11.57;;
71202;SDS011;58929;47.490;19.090;2023-02-28T00:28:46;18.50;;;11.00;;
71202;SDS011;58929;47.490;19.090;2023-02-28T00:31:15;26.58;;;11.38;;
71202;SDS011;58929;47.490;19.090;2023-02-28T00:33:43;25.77;;;11.38;;
71202;SDS011;58929;47.490;19.090;2023-02-28T00:36:12;22.38;;;12.15;;
71202;SDS011;58929;47.490;19.090;2023-02-28T00:38:42;20.02;;;12.18;;
71202;SDS011;58929;47.490;19.090;2023-02-28T00:41:10;21.80;;;12.43;;
71202;SDS011;58929;47.490;19.090;2023-02-28T00:43:38;18.33;;;11.63;;
71202;SDS011;58929;47.490;19.090;2023-02-28T00:46:06;23.88;;;12.95;;
71202;SDS011;58929;47.490;19.090;2023-02-28T00:48:35;25.08;;;13.05;;
71202;SDS011;58929;47.490;19.090;2023-02-28T00:51:03;22.60;;;11.98;;
71202;SDS011;58929;47.490;19.090;2023-02-28T00:53:32;22.10;;;13.07;;
71202;SDS011;58929;47.490;19.090;2023-02-28T00:56:01;20.60;;;12.35;;
71202;SDS011;58929;47.490;19.090;2023-02-28T00:58:30;21.60;;;12.95;;
71202;SDS011;58929;47.490;19.090;2023-02-28T01:00:58;27.13;;;14.80;;
71202;SDS011;58929;47.490;19.090;2023-02-28T01:03:26;22.35;;;13.70;;
71202;SDS011;58929;47.490;19.090;2023-02-28T01:05:54;25.42;;;14.73;;
71202;SDS011;58929;47.490;19.090;2023-02-28T01:08:22;25.73;;;14.00;;
71202;SDS011;58929;47.490;19.090;2023-02-28T01:10:50;22.50;;;14.07;;
71202;SDS011;58929;47.490;19.090;2023-02-28T01:13:20;25.52;;;15.02;;
71202;SDS011;58929;47.490;19.090;2023-02-28T01:15:50;30.35;;;15.45;;
71202;SDS011;58929;47.490;19.090;2023-02-28T01:18:18;28.20;;;16.08;;
71202;SDS011;58929;47.490;19.090;2023-02-28T01:20:46;29.98;;;15.27;;
71202;SDS011;58929;47.490;19.090;2023-02-28T01:23:15;24.52;;;15.18;;
71202;SDS011;58929;47.490;19.090;2023-02-28T01:25:43;27.00;;;16.33;;
71202;SDS011;58929;47.490;19.090;2023-02-28T01:28:11;27.00;;;15.85;;
71202;SDS011;58929;47.490;19.090;2023-02-28T01:30:41;26.70;;;15.98;;
71202;SDS011;58929;47.490;19.090;2023-02-28T01:33:10;25.42;;;14.93;;
71202;SDS011;58929;47.490;19.090;2023-02-28T01:35:39;29.88;;;15.68;;
71202;SDS011;58929;47.490;19.090;2023-02-28T01:38:08;25.95;;;15.55;;
71202;SDS011;58929;47.490;19.090;2023-02-28T01:40:47;27.58;;;15.63;;
71202;SDS011;58929;47.490;19.090;2023-02-28T01:43:22;25.58;;;16.10;;
71202;SDS011;58929;47.490;19.090;2023-02-28T01:45:52;25.20;;;15.45;;
71202;SDS011;58929;47.490;19.090;2023-02-28T01:48:21;29.13;;;15.30;;
71202;SDS011;58929;47.490;19.090;2023-02-28T01:50:50;31.40;;;16.98;;
71202;SDS011;58929;47.490;19.090;2023-02-28T01:53:19;26.25;;;16.17;;
71202;SDS011;58929;47.490;19.090;2023-02-28T01:55:49;25.55;;;15.35;;
71202;SDS011;58929;47.490;19.090;2023-02-28T01:58:20;29.90;;;15.98;;
71202;SDS011;58929;47.490;19.090;2023-02-28T02:00:48;26.75;;;15.38;;
71202;SDS011;58929;47.490;19.090;2023-02-28T02:03:17;26.05;;;15.70;;
71202;SDS011;58929;47.490;19.090;2023-02-28T02:05:47;26.55;;;16.33;;
71202;SDS011;58929;47.490;19.090;2023-02-28T02:08:16;26.58;;;15.02;;
71202;SDS011;58929;47.490;19.090;2023-02-28T02:10:45;26.90;;;14.90;;
71202;SDS011;58929;47.490;19.090;2023-02-28T02:13:25;23.50;;;14.80;;
71202;SDS011;58929;47.490;19.090;2023-02-28T02:15:57;24.00;;;13.48;;
71202;SDS011;58929;47.490;19.090;2023-02-28T02:18:30;23.38;;;14.10;;
71202;SDS011;58929;47.490;19.090;2023-02-28T02:24:00;20.63;;;13.88;;
71202;SDS011;58929;47.490;19.090;2023-02-28T02:26:35;22.77;;;13.48;;
71202;SDS011;58929;47.490;19.090;2023-02-28T02:29:16;26.53;;;15.00;;
71202;SDS011;58929;47.490;19.090;2023-02-28T02:32:09;24.58;;;13.65;;
71202;SDS011;58929;47.490;19.090;2023-02-28T02:34:44;22.50;;;14.20;;
71202;SDS011;58929;47.490;19.090;2023-02-28T02:37:19;21.35;;;12.57;;
71202;SDS011;58929;47.490;19.090;2023-02-28T02:39:51;26.60;;;13.18;;
71202;SDS011;58929;47.490;19.090;2023-02-28T02:42:21;20.13;;;12.45;;
71202;SDS011;58929;47.490;19.090;2023-02-28T02:44:53;24.13;;;14.30;;
71202;SDS011;58929;47.490;19.090;2023-02-28T02:47:24;22.13;;;12.65;;
71202;SDS011;58929;47.490;19.090;2023-02-28T02:49:55;23.10;;;14.02;;
71202;SDS011;58929;47.490;19.090;2023-02-28T02:52:25;23.83;;;13.80;;
71202;SDS011;58929;47.490;19.090;2023-02-28T02:54:57;22.27;;;13.32;;
71202;SDS011;58929;47.490;19.090;2023-02-28T02:57:27;24.88;;;13.02;;
71202;SDS011;58929;47.490;19.090;2023-02-28T02:59:57;20.70;;;13.05;;
71202;SDS011;58929;47.490;19.090;2023-02-28T03:02:26;21.90;;;13.85;;
71202;SDS011;58929;47.490;19.090;2023-02-28T03:05:04;21.50;;;12.32;;
71202;SDS011;58929;47.490;19.090;2023-02-28T03:07:33;21.98;;;12.35;;
71202;SDS011;58929;47.490;19.090;2023-02-28T03:10:01;22.38;;;12.98;;
71202;SDS011;58929;47.490;19.090;2023-02-28T03:12:31;20.30;;;12.57;;
71202;SDS011;58929;47.490;19.090;2023-02-28T03:15:04;21.08;;;12.55;;
71202;SDS011;58929;47.490;19.090;2023-02-28T03:17:42;18.40;;;11.60;;
71202;SDS011;58929;47.490;19.090;2023-02-28T03:20:17;19.20;;;13.05;;
71202;SDS011;58929;47.490;19.090;2023-02-28T03:22:52;23.58;;;13.07;;
71202;SDS011;58929;47.490;19.090;2023-02-28T03:25:27;18.55;;;11.88;;
71202;SDS011;58929;47.490;19.090;2023-02-28T03:28:00;17.60;;;11.15;;
71202;SDS011;58929;47.490;19.090;2023-02-28T03:30:31;22.65;;;12.95;;
71202;SDS011;58929;47.490;19.090;2023-02-28T03:33:03;24.17;;;13.05;;
71202;SDS011;58929;47.490;19.090;2023-02-28T03:35:36;20.95;;;12.90;;
71202;SDS011;58929;47.490;19.090;2023-02-28T03:38:06;23.30;;;11.80;;
71202;SDS011;58929;47.490;19.090;2023-02-28T03:40:36;20.50;;;12.80;;
71202;SDS011;58929;47.490;19.090;2023-02-28T03:43:07;20.95;;;12.20;;
71202;SDS011;58929;47.490;19.090;2023-02-28T03:45:37;22.45;;;12.80;;
71202;SDS011;58929;47.490;19.090;2023-02-28T03:48:08;20.10;;;12.50;;
71202;SDS011;58929;47.490;19.090;2023-02-28T03:50:39;23.52;;;12.15;;
71202;SDS011;58929;47.490;19.090;2023-02-28T03:53:08;20.98;;;11.25;;
71202;SDS011;58929;47.490;19.090;2023-02-28T03:55:39;18.98;;;11.75;;
71202;SDS011;58929;47.490;19.090;2023-02-28T03:58:11;19.60;;;10.35;;
71202;SDS011;58929;47.490;19.090;2023-02-28T04:00:43;15.63;;;10.55;;
71202;SDS011;58929;47.490;19.090;2023-02-28T04:03:12;16.95;;;10.45;;
71202;SDS011;58929;47.490;19.090;2023-02-28T04:05:50;15.98;;;10.45;;
71202;SDS011;58929;47.490;19.090;2023-02-28T04:08:18;16.27;;;9.60;;
71202;SDS011;58929;47.490;19.090;2023-02-28T04:10:47;21.08;;;11.00;;
71202;SDS011;58929;47.490;19.090;2023-02-28T04:13:15;18.40;;;10.30;;
71202;SDS011;58929;47.490;19.090;2023-02-28T04:15:44;18.83;;;10.60;;
71202;SDS011;58929;47.490;19.090;2023-02-28T04:18:14;19.55;;;11.18;;
71202;SDS011;58929;47.490;19.090;2023-02-28T04:20:42;15.23;;;9.68;;
71202;SDS011;58929;47.490;19.090;2023-02-28T04:23:12;17.00;;;10.45;;
71202;SDS011;58929;47.490;19.090;2023-02-28T04:25:41;18.00;;;10.70;;
71202;SDS011;58929;47.490;19.090;2023-02-28T04:28:10;17.08;;;10.40;;
71202;SDS011;58929;47.490;19.090;2023-02-28T04:30:37;17.70;;;10.63;;
71202;SDS011;58929;47.490;19.090;2023-02-28T04:33:06;18.38;;;10.90;;
71202;SDS011;58929;47.490;19.090;2023-02-28T04:35:35;20.00;;;11.38;;
71202;SDS011;58929;47.490;19.090;2023-02-28T04:38:03;17.60;;;10.30;;
71202;SDS011;58929;47.490;19.090;2023-02-28T04:40:33;20.35;;;10.45;;
71202;SDS011;58929;47.490;19.090;2023-02-28T04:43:01;19.50;;;11.35;;
71202;SDS011;58929;47.490;19.090;2023-02-28T04:45:29;17.05;;;11.07;;
71202;SDS011;58929;47.490;19.090;2023-02-28T04:47:58;22.73;;;11.98;;
71202;SDS011;58929;47.490;19.090;2023-02-28T04:50:26;20.35;;;11.38;;
71202;SDS011;58929;47.490;19.090;2023-02-28T04:52:54;19.15;;;10.77;;
71202;SDS011;58929;47.490;19.090;2023-02-28T04:55:24;16.73;;;10.32;;
71202;SDS011;58929;47.490;19.090;2023-02-28T04:57:54;14.40;;;9.85;;
71202;SDS011;58929;47.490;19.090;2023-02-28T05:00:22;16.67;;;9.38;;
71202;SDS011;58929;47.490;19.090;2023-02-28T05:02:50;16.67;;;9.55;;
71202;SDS011;58929;47.490;19.090;2023-02-28T05:05:18;20.23;;;10.18;;
71202;SDS011;58929;47.490;19.090;2023-02-28T05:07:46;19.98;;;9.70;;
71202;SDS011;58929;47.490;19.090;2023-02-28T05:10:14;16.02;;;9.73;;
71202;SDS011;58929;47.490;19.090;2023-02-28T05:12:41;17.88;;;10.93;;
71202;SDS011;58929;47.490;19.090;2023-02-28T05:15:11;18.38;;;9.82;;
71202;SDS011;58929;47.490;19.090;2023-02-28T05:17:41;15.95;;;9.75;;
71202;SDS011;58929;47.490;19.090;2023-02-28T05:20:10;23.75;;;10.23;;
71202;SDS011;58929;47.490;19.090;2023-02-28T05:22:41;18.48;;;10.68;;
71202;SDS011;58929;47.490;19.090;2023-02-28T05:25:10;17.85;;;9.55;;
71202;SDS011;58929;47.490;19.090;2023-02-28T05:27:39;20.58;;;11.25;;
71202;SDS011;58929;47.490;19.090;2023-02-28T05:30:07;18.88;;;10.57;;
71202;SDS011;58929;47.490;19.090;2023-02-28T05:32:38;20.05;;;10.85;;
71202;SDS011;58929;47.490;19.090;2023-02-28T05:35:09;21.40;;;11.63;;
71202;SDS011;58929;47.490;19.090;2023-02-28T05:37:38;18.25;;;10.07;;
71202;SDS011;58929;47.490;19.090;2023-02-28T05:40:08;18.77;;;10.82;;
71202;SDS011;58929;47.490;19.090;2023-02-28T05:42:38;17.45;;;9.75;;
71202;SDS011;58929;47.490;19.090;2023-02-28T05:45:07;18.98;;;9.80;;
71202;SDS011;58929;47.490;19.090;2023-02-28T05:47:37;17.17;;;9.55;;
71202;SDS011;58929;47.490;19.090;2023-02-28T05:50:06;17.65;;;9.73;;
71202;SDS011;58929;47.490;19.090;2023-02-28T05:52:36;16.48;;;10.02;;
71202;SDS011;58929;47.490;19.090;2023-02-28T05:55:04;16.63;;;10.48;;
71202;SDS011;58929;47.490;19.090;2023-02-28T05:57:32;21.13;;;11.95;;
71202;SDS011;58929;47.490;19.090;2023-02-28T06:00:00;14.15;;;9.23;;
71202;SDS011;58929;47.490;19.090;2023-02-28T06:02:39;21.58;;;11.27;;
71202;SDS011;58929;47.490;19.090;2023-02-28T06:05:09;18.83;;;10.52;;
71202;SDS011;58929;47.490;19.090;2023-02-28T06:07:40;18.98;;;9.63;;
71202;SDS011;58929;47.490;19.090;2023-02-28T06:10:08;18.02;;;9.90;;
71202;SDS011;58929;47.490;19.090;2023-02-28T06:12:36;16.70;;;9.15;;
71202;SDS011;58929;47.490;19.090;2023-02-28T06:15:05;21.38;;;10.30;;
71202;SDS011;58929;47.490;19.090;2023-02-28T06:17:33;19.05;;;10.10;;
71202;SDS011;58929;47.490;19.090;2023-02-28T06:20:03;21.27;;;10.40;;
71202;SDS011;58929;47.490;19.090;2023-02-28T06:22:32;16.50;;;8.98;;
71202;SDS011;58929;47.490;19.090;2023-02-28T06:25:00;15.63;;;9.45;;
71202;SDS011;58929;47.490;19.090;2023-02-28T06:27:28;19.50;;;10.30;;
71202;SDS011;58929;47.490;19.090;2023-02-28T06:29:56;15.93;;;9.23;;
71202;SDS011;58929;47.490;19.090;2023-02-28T06:32:25;19.40;;;9.70;;
71202;SDS011;58929;47.490;19.090;2023-02-28T06:34:53;30.05;;;17.38;;
71202;SDS011;58929;47.490;19.090;2023-02-28T06:37:22;33.65;;;15.75;;
71202;SDS011;58929;47.490;19.090;2023-02-28T06:39:53;25.13;;;11.10;;
71202;SDS011;58929;47.490;19.090;2023-02-28T06:42:22;15.30;;;9.45;;
71202;SDS011;58929;47.490;19.090;2023-02-28T06:44:52;17.88;;;9.48;;
71202;SDS011;58929;47.490;19.090;2023-02-28T06:47:20;18.10;;;9.57;;
71202;SDS011;58929;47.490;19.090;2023-02-28T06:49:48;25.10;;;10.85;;
71202;SDS011;58929;47.490;19.090;2023-02-28T06:52:16;17.40;;;10.23;;
71202;SDS011;58929;47.490;19.090;2023-02-28T06:54:47;18.77;;;11.35;;
71202;SDS011;58929;47.490;19.090;2023-02-28T06:57:27;20.17;;;9.98;;
71202;SDS011;58929;47.490;19.090;2023-02-28T06:59:57;15.68;;;9.65;;
71202;SDS011;58929;47.490;19.090;2023-02-28T07:02:25;18.33;;;10.68;;
71202;SDS011;58929;47.490;19.090;2023-02-28T07:04:53;20.27;;;10.50;;
71202;SDS011;58929;47.490;19.090;2023-02-28T07:07:21;18.40;;;10.73;;
71202;SDS011;58929;47.490;19.090;2023-02-28T07:09:51;19.70;;;11.32;;
71202;SDS011;58929;47.490;19.090;2023-02-28T07:12:20;17.98;;;9.48;;
71202;SDS011;58929;47.490;19.090;2023-02-28T07:14:48;20.85;;;9.32;;
71202;SDS011;58929;47.490;19.090;2023-02-28T07:17:15;18.20;;;10.68;;
71202;SDS011;58929;47.490;19.090;2023-02-28T07:19:44;17.58;;;10.32;;
71202;SDS011;58929;47.490;19.090;2023-02-28T07:22:12;20.58;;;11.25;;
71202;SDS011;58929;47.490;19.090;2023-02-28T07:24:41;18.48;;;8.93;;
71202;SDS011;58929;47.490;19.090;2023-02-28T07:27:10;20.48;;;11.02;;
71202;SDS011;58929;47.490;19.090;2023-02-28T07:29:38;21.42;;;11.10;;
71202;SDS011;58929;47.490;19.090;2023-02-28T07:32:06;18.77;;;11.13;;
71202;SDS011;58929;47.490;19.090;2023-02-28T07:34:35;17.70;;;8.85;;
71202;SDS011;58929;47.490;19.090;2023-02-28T07:37:04;15.88;;;9.73;;
71202;SDS011;58929;47.490;19.090;2023-02-28T07:39:34;18.42;;;9.45;;
71202;SDS011;58929;47.490;19.090;2023-02-28T07:42:04;17.30;;;9.63;;
71202;SDS011;58929;47.490;19.090;2023-02-28T07:44:34;16.83;;;9.45;;
71202;SDS011;58929;47.490;19.090;2023-02-28T07:47:07;17.75;;;9.27;;
71202;SDS011;58929;47.490;19.090;2023-02-28T07:49:35;16.45;;;8.98;;
71202;SDS011;58929;47.490;19.090;2023-02-28T07:52:03;16.73;;;9.88;;
71202;SDS011;58929;47.490;19.090;2023-02-28T07:54:32;15.15;;;9.57;;
71202;SDS011;58929;47.490;19.090;2023-02-28T07:57:00;17.73;;;10.05;;
71202;SDS011;58929;47.490;19.090;2023-02-28T07:59:29;17.75;;;10.15;;
71202;SDS011;58929;47.490;19.090;2023-02-28T08:01:59;16.63;;;9.90;;
71202;SDS011;58929;47.490;19.090;2023-02-28T08:04:28;15.93;;;9.38;;
71202;SDS011;58929;47.490;19.090;2023-02-28T08:06:59;18.13;;;10.73;;
71202;SDS011;58929;47.490;19.090;2023-02-28T08:09:27;16.63;;;9.80;;
71202;SDS011;58929;47.490;19.090;2023-02-28T08:11:56;18.52;;;10.10;;
71202;SDS011;58929;47.490;19.090;2023-02-28T08:14:24;16.33;;;9.45;;
71202;SDS011;58929;47.490;19.090;2023-02-28T08:16:52;15.25;;;9.50;;
71202;SDS011;58929;47.490;19.090;2023-02-28T08:19:22;18.35;;;9.63;;
71202;SDS011;58929;47.490;19.090;2023-02-28T08:21:50;15.43;;;9.45;;
71202;SDS011;58929;47.490;19.090;2023-02-28T08:24:18;14.93;;;9.52;;
71202;SDS011;58929;47.490;19.090;2023-02-28T08:26:46;15.93;;;9.20;;
71202;SDS011;58929;47.490;19.090;2023-02-28T08:29:14;13.68;;;9.23;;
71202;SDS011;58929;47.490;19.090;2023-02-28T08:31:42;22.73;;;12.13;;
71202;SDS011;58929;47.490;19.090;2023-02-28T08:34:11;13.73;;;8.52;;
71202;SDS011;58929;47.490;19.090;2023-02-28T08:36:41;17.58;;;8.90;;
71202;SDS011;58929;47.490;19.090;2023-02-28T08:39:09;21.67;;;9.07;;
71202;SDS011;58929;47.490;19.090;2023-02-28T08:41:37;17.80;;;8.45;;
71202;SDS011;58929;47.490;19.090;2023-02-28T08:44:05;14.02;;;8.10;;
71202;SDS011;58929;47.490;19.090;2023-02-28T08:46:33;29.88;;;12.85;;
71202;SDS011;58929;47.490;19.090;2023-02-28T08:49:02;19.60;;;9.38;;
71202;SDS011;58929;47.490;19.090;2023-02-28T08:51:29;15.02;;;7.03;;
71202;SDS011;58929;47.490;19.090;2023-02-28T08:53:59;11.90;;;7.50;;
71202;SDS011;58929;47.490;19.090;2023-02-28T08:56:28;13.77;;;7.38;;
71202;SDS011;58929;47.490;19.090;2023-02-28T08:58:56;12.43;;;7.40;;
71202;SDS011;58929;47.490;19.090;2023-02-28T09:01:25;15.70;;;8.30;;
71202;SDS011;58929;47.490;19.090;2023-02-28T09:03:58;16.20;;;8.00;;
71202;SDS011;58929;47.490;19.090;2023-02-28T09:06:26;12.02;;;7.30;;
71202;SDS011;58929;47.490;19.090;2023-02-28T09:08:56;12.70;;;7.03;;
71202;SDS011;58929;47.490;19.090;2023-02-28T09:11:26;11.43;;;6.88;;
71202;SDS011;58929;47.490;19.090;2023-02-28T09:13:54;12.85;;;6.90;;
71202;SDS011;58929;47.490;19.090;2023-02-28T09:16:23;13.13;;;6.95;;
71202;SDS011;58929;47.490;19.090;2023-02-28T09:18:51;13.38;;;8.45;;
71202;SDS011;58929;47.490;19.090;2023-02-28T09:21:20;14.57;;;7.85;;
71202;SDS011;58929;47.490;19.090;2023-02-28T09:23:48;13.55;;;7.25;;
71202;SDS011;58929;47.490;19.090;2023-02-28T09:26:17;14.07;;;7.10;;
71202;SDS011;58929;47.490;19.090;2023-02-28T09:28:48;15.65;;;8.57;;
71202;SDS011;58929;47.490;19.090;2023-02-28T09:31:17;29.92;;;15.10;;
71202;SDS011;58929;47.490;19.090;2023-02-28T09:33:47;54.90;;;25.15;;
71202;SDS011;58929;47.490;19.090;2023-02-28T09:36:16;11.70;;;8.00;;
71202;SDS011;58929;47.490;19.090;2023-02-28T09:38:44;12.70;;;6.93;;
71202;SDS011;58929;47.490;19.090;2023-02-28T09:41:15;11.73;;;7.40;;
71202;SDS011;58929;47.490;19.090;2023-02-28T09:43:44;18.17;;;8.00;;
71202;SDS011;58929;47.490;19.090;2023-02-28T09:46:17;11.60;;;7.35;;
71202;SDS011;58929;47.490;19.090;2023-02-28T09:48:48;11.57;;;6.38;;
71202;SDS011;58929;47.490;19.090;2023-02-28T09:51:23;15.60;;;7.47;;
71202;SDS011;58929;47.490;19.090;2023-02-28T09:53:55;12.68;;;6.22;;
71202;SDS011;58929;47.490;19.090;2023-02-28T09:56:28;10.82;;;6.38;;
71202;SDS011;58929;47.490;19.090;2023-02-28T09:58:58;9.73;;;6.00;;
71202;SDS011;58929;47.490;19.090;2023-02-28T10:01:31;9.73;;;6.97;;
71202;SDS011;58929;47.490;19.090;2023-02-28T10:04:03;15.10;;;8.10;;
71202;SDS011;58929;47.490;19.090;2023-02-28T10:06:35;14.63;;;7.80;;
71202;SDS011;58929;47.490;19.090;2023-02-28T10:09:05;13.90;;;7.50;;
71202;SDS011;58929;47.490;19.090;2023-02-28T10:11:36;17.02;;;7.80;;
71202;SDS011;58929;47.490;19.090;2023-02-28T10:14:06;17.83;;;8.05;;
71202;SDS011;58929;47.490;19.090;2023-02-28T10:16:40;14.55;;;7.38;;
71202;SDS011;58929;47.490;19.090;2023-02-28T10:19:13;17.83;;;8.18;;
71202;SDS011;58929;47.490;19.090;2023-02-28T10:21:43;15.98;;;8.07;;
71202;SDS011;58929;47.490;19.090;2023-02-28T10:24:15;14.57;;;9.00;;
71202;SDS011;58929;47.490;19.090;2023-02-28T10:26:43;13.77;;;7.80;;
71202;SDS011;58929;47.490;19.090;2023-02-28T10:29:12;12.43;;;7.78;;
71202;SDS011;58929;47.490;19.090;2023-02-28T10:31:42;13.85;;;8.15;;
71202;SDS011;58929;47.490;19.090;2023-02-28T10:34:11;13.88;;;7.13;;
71202;SDS011;58929;47.490;19.090;2023-02-28T10:36:39;15.52;;;9.05;;
71202;SDS011;58929;47.490;19.090;2023-02-28T10:42:18;16.95;;;8.50;;
71202;SDS011;58929;47.490;19.090;2023-02-28T10:44:47;17.80;;;9.48;;
71202;SDS011;58929;47.490;19.090;2023-02-28T10:47:16;13.60;;;8.02;;
71202;SDS011;58929;47.490;19.090;2023-02-28T10:49:48;23.33;;;13.95;;
71202;SDS011;58929;47.490;19.090;2023-02-28T10:52:32;15.20;;;8.20;;
71202;SDS011;58929;47.490;19.090;2023-02-28T10:55:13;12.65;;;7.13;;
71202;SDS011;58929;47.490;19.090;2023-02-28T10:57:49;13.85;;;7.30;;
71202;SDS011;58929;47.490;19.090;2023-02-28T11:00:18;14.02;;;7.80;;
71202;SDS011;58929;47.490;19.090;2023-02-28T11:02:48;12.70;;;7.60;;
71202;SDS011;58929;47.490;19.090;2023-02-28T11:05:26;14.18;;;7.65;;
71202;SDS011;58929;47.490;19.090;2023-02-28T11:07:55;14.68;;;7.75;;
71202;SDS011;58929;47.490;19.090;2023-02-28T11:10:25;13.18;;;8.02;;
71202;SDS011;58929;47.490;19.090;2023-02-28T11:12:54;12.05;;;8.15;;
71202;SDS011;58929;47.490;19.090;2023-02-28T11:15:26;14.32;;;8.10;;
71202;SDS011;58929;47.490;19.090;2023-02-28T11:17:56;15.10;;;7.53;;
71202;SDS011;58929;47.490;19.090;2023-02-28T11:20:25;21.92;;;12.70;;
71202;SDS011;58929;47.490;19.090;2023-02-28T11:22:54;14.02;;;8.68;;
71202;SDS011;58929;47.490;19.090;2023-02-28T11:25:23;19.42;;;8.75;;
71202;SDS011;58929;47.490;19.090;2023-02-28T11:27:53;9.88;;;6.72;;
71202;SDS011;58929;47.490;19.090;2023-02-28T11:30:26;16.15;;;7.88;;
71202;SDS011;58929;47.490;19.090;2023-02-28T11:32:55;14.85;;;8.73;;
71202;SDS011;58929;47.490;19.090;2023-02-28T11:35:25;11.38;;;7.38;;
71202;SDS011;58929;47.490;19.090;2023-02-28T11:37:53;16.77;;;7.43;;
71202;SDS011;58929;47.490;19.090;2023-02-28T11:40:23;18.02;;;7.78;;
71202;SDS011;58929;47.490;19.090;2023-02-28T11:42:59;14.18;;;6.88;;
71202;SDS011;58929;47.490;19.090;2023-02-28T11:45:35;18.13;;;9.38;;
71202;SDS011;58929;47.490;19.090;2023-02-28T11:48:10;14.80;;;7.95;;
71202;SDS011;58929;47.490;19.090;2023-02-28T11:53:47;16.40;;;8.55;;
71202;SDS011;58929;47.490;19.090;2023-02-28T11:56:18;16.60;;;7.88;;
71202;SDS011;58929;47.490;19.090;2023-02-28T11:58:50;12.23;;;7.20;;
71202;SDS011;58929;47.490;19.090;2023-02-28T12:01:25;11.85;;;6.75;;
71202;SDS011;58929;47.490;19.090;2023-02-28T12:04:01;25.33;;;8.52;;
71202;SDS011;58929;47.490;19.090;2023-02-28T12:06:33;18.15;;;7.47;;
71202;SDS011;58929;47.490;19.090;2023-02-28T12:09:09;13.13;;;7.20;;
71202;SDS011;58929;47.490;19.090;2023-02-28T12:11:43;16.35;;;7.28;;
71202;SDS011;58929;47.490;19.090;2023-02-28T12:14:22;15.27;;;7.05;;
71202;SDS011;58929;47.490;19.090;2023-02-28T12:16:55;14.07;;;6.50;;
71202;SDS011;58929;47.490;19.090;2023-02-28T12:19:27;10.10;;;5.72;;
71202;SDS011;58929;47.490;19.090;2023-02-28T12:22:00;11.93;;;6.30;;
71202;SDS011;58929;47.490;19.090;2023-02-28T12:27:19;13.32;;;6.28;;
71202;SDS011;58929;47.490;19.090;2023-02-28T12:29:51;22.13;;;6.97;;
71202;SDS011;58929;47.490;19.090;2023-02-28T12:32:21;10.95;;;6.43;;
71202;SDS011;58929;47.490;19.090;2023-02-28T12:34:52;11.70;;;6.95;;
71202;SDS011;58929;47.490;19.090;2023-02-28T12:37:25;10.48;;;6.82;;
71202;SDS011;58929;47.490;19.090;2023-02-28T12:39:54;16.98;;;6.75;;
71202;SDS011;58929;47.490;19.090;2023-02-28T12:42:24;9.20;;;6.00;;
71202;SDS011;58929;47.490;19.090;2023-02-28T12:44:56;12.80;;;6.18;;
71202;SDS011;58929;47.490;19.090;2023-02-28T12:47:25;16.23;;;6.78;;
71202;SDS011;58929;47.490;19.090;2023-02-28T12:49:56;13.60;;;7.00;;
71202;SDS011;58929;47.490;19.090;2023-02-28T12:52:25;21.05;;;11.18;;
71202;SDS011;58929;47.490;19.090;2023-02-28T12:54:57;18.73;;;9.98;;
71202;SDS011;58929;47.490;19.090;2023-02-28T12:57:31;9.73;;;6.28;;
71202;SDS011;58929;47.490;19.090;2023-02-28T13:00:01;12.98;;;6.75;;
71202;SDS011;58929;47.490;19.090;2023-02-28T13:05:26;11.63;;;7.22;;
71202;SDS011;58929;47.490;19.090;2023-02-28T13:08:08;9.70;;;6.43;;
71202;SDS011;58929;47.490;19.090;2023-02-28T13:10:40;19.25;;;6.47;;
71202;SDS011;58929;47.490;19.090;2023-02-28T13:13:13;20.90;;;6.97;;
71202;SDS011;58929;47.490;19.090;2023-02-28T13:15:49;13.63;;;6.03;;
71202;SDS011;58929;47.490;19.090;2023-02-28T13:18:28;13.45;;;6.20;;
71202;SDS011;58929;47.490;19.090;2023-02-28T13:20:57;9.05;;;6.60;;
71202;SDS011;58929;47.490;19.090;2023-02-28T13:23:56;7.40;;;5.90;;
71202;SDS011;58929;47.490;19.090;2023-02-28T13:29:21;11.95;;;6.43;;
71202;SDS011;58929;47.490;19.090;2023-02-28T13:34:42;11.73;;;6.22;;
71202;SDS011;58929;47.490;19.090;2023-02-28T13:40:24;9.75;;;5.55;;
71202;SDS011;58929;47.490;19.090;2023-02-28T13:42:54;11.15;;;6.85;;
71202;SDS011;58929;47.490;19.090;2023-02-28T13:45:23;16.98;;;6.45;;
71202;SDS011;58929;47.490;19.090;2023-02-28T13:47:52;11.45;;;5.28;;
71202;SDS011;58929;47.490;19.090;2023-02-28T13:50:23;11.27;;;5.72;;
71202;SDS011;58929;47.490;19.090;2023-02-28T13:52:55;15.88;;;6.60;;
71202;SDS011;58929;47.490;19.090;2023-02-28T13:55:28;10.05;;;5.72;;
71202;SDS011;58929;47.490;19.090;2023-02-28T13:58:03;11.18;;;5.10;;
71202;SDS011;58929;47.490;19.090;2023-02-28T14:00:41;9.95;;;4.55;;
71202;SDS011;58929;47.490;19.090;2023-02-28T14:03:14;9.80;;;5.22;;
71202;SDS011;58929;47.490;19.090;2023-02-28T14:05:45;11.35;;;6.15;;
71202;SDS011;58929;47.490;19.090;2023-02-28T14:08:15;9.80;;;5.28;;
71202;SDS011;58929;47.490;19.090;2023-02-28T14:10:46;15.20;;;5.40;;
71202;SDS011;58929;47.490;19.090;2023-02-28T14:15:57;16.13;;;5.80;;
71202;SDS011;58929;47.490;19.090;2023-02-28T14:18:28;8.68;;;5.50;;
71202;SDS011;58929;47.490;19.090;2023-02-28T14:20:58;12.57;;;5.78;;
71202;SDS011;58929;47.490;19.090;2023-02-28T14:23:41;11.50;;;5.78;;
71202;SDS011;58929;47.490;19.090;2023-02-28T14:26:16;13.18;;;6.15;;
71202;SDS011;58929;47.490;19.090;2023-02-28T14:28:50;10.75;;;5.55;;
71202;SDS011;58929;47.490;19.090;2023-02-28T14:31:24;10.43;;;5.97;;
71202;SDS011;58929;47.490;19.090;2023-02-28T14:34:12;12.82;;;6.45;;
71202;SDS011;58929;47.490;19.090;2023-02-28T14:36:44;12.68;;;6.05;;
71202;SDS011;58929;47.490;19.090;2023-02-28T14:39:13;11.57;;;6.40;;
71202;SDS011;58929;47.490;19.090;2023-02-28T14:41:43;13.18;;;6.78;;
71202;SDS011;58929;47.490;19.090;2023-02-28T14:44:14;20.73;;;11.82;;
71202;SDS011;58929;47.490;19.090;2023-02-28T14:46:42;15.57;;;7.28;;
71202;SDS011;58929;47.490;19.090;2023-02-28T14:49:12;10.80;;;5.95;;
71202;SDS011;58929;47.490;19.090;2023-02-28T14:51:41;15.43;;;6.50;;
71202;SDS011;58929;47.490;19.090;2023-02-28T14:54:12;9.02;;;6.20;;
71202;SDS011;58929;47.490;19.090;2023-02-28T14:56:42;15.73;;;6.78;;
71202;SDS011;58929;47.490;19.090;2023-02-28T14:59:23;15.80;;;6.80;;
71202;SDS011;58929;47.490;19.090;2023-02-28T15:01:52;11.10;;;6.25;;